Terminal Aerodrome Forecast
Issued by NWS Duluth, MN

Home | Current Version | Previous Version | Text Only | Print | Product List | Glossary On
Versions: 1 2 3 4 5 6 7 8 9 10 11 12 13 14
000
FTUS43 KDLH 251700
TAFINL
TAF
KINL 251720Z 2518/2618 VRB04KT P6SM OVC035
     FM260200 00000KT P6SM BKN025 OVC040
     FM260600 01003KT P6SM -SN SCT013 BKN025 OVC040
     FM260900 02007KT 5SM -SN BR OVC018
      TEMPO 2611/2615 2SM -SN BR BKN022 OVC080
     FM261700 34010KT P6SM -SN OVC028=

USA.gov is the U.S. government's official web portal to all federal, state and local government web resources and services.